createdAt,value
2023-01-30T00:02:18.869Z,18.87
2023-01-30T00:04:48.696Z,20.27
2023-01-30T00:07:16.899Z,19.47
2023-01-30T00:09:45.594Z,19.13
2023-01-30T00:12:13.956Z,19.80
2023-01-30T00:14:42.407Z,20.50
2023-01-30T00:17:10.785Z,18.90
2023-01-30T00:19:38.856Z,19.90
2023-01-30T00:22:08.216Z,19.30
2023-01-30T00:24:36.604Z,17.80
2023-01-30T00:27:05.007Z,19.23
2023-01-30T00:29:33.512Z,18.83
2023-01-30T00:32:03.739Z,18.57
2023-01-30T00:34:31.876Z,19.27
2023-01-30T00:37:08.108Z,17.80
2023-01-30T00:39:38.168Z,18.97
2023-01-30T00:42:24.391Z,17.73
2023-01-30T00:45:09.972Z,17.97
2023-01-30T00:47:38.435Z,17.43
2023-01-30T00:50:07.487Z,18.03
2023-01-30T00:52:37.012Z,16.97
2023-01-30T00:55:07.671Z,17.67
2023-01-30T00:57:35.888Z,17.97
2023-01-30T01:00:05.445Z,17.77
2023-01-30T01:02:33.597Z,16.90
2023-01-30T01:05:01.896Z,17.67
2023-01-30T01:07:30.080Z,17.50
2023-01-30T01:09:59.287Z,17.37
2023-01-30T01:12:29.231Z,18.20
2023-01-30T01:14:57.519Z,16.90
2023-01-30T01:17:25.834Z,16.40
2023-01-30T01:19:53.980Z,16.77
2023-01-30T01:22:22.374Z,17.00
2023-01-30T01:24:50.750Z,16.40
2023-01-30T01:27:19.468Z,16.33
2023-01-30T01:29:49.062Z,15.73
2023-01-30T01:32:17.752Z,16.10
2023-01-30T01:34:46.008Z,16.23
2023-01-30T01:37:14.144Z,17.17
2023-01-30T01:40:02.309Z,17.73
2023-01-30T01:42:35.387Z,15.93
2023-01-30T01:45:17.417Z,15.60
2023-01-30T01:47:50.444Z,16.60
2023-01-30T01:50:24.111Z,16.70
2023-01-30T01:52:55.431Z,15.97
2023-01-30T01:55:25.760Z,16.23
2023-01-30T01:57:58.209Z,15.53
2023-01-30T02:00:28.898Z,16.23
2023-01-30T02:02:59.710Z,15.30
2023-01-30T02:05:32.101Z,16.07
2023-01-30T02:08:04.401Z,16.37
2023-01-30T02:10:41.391Z,16.60
2023-01-30T02:13:10.018Z,16.30
2023-01-30T02:15:39.917Z,16.13
2023-01-30T02:18:09.016Z,16.27
2023-01-30T02:21:02.341Z,17.27
2023-01-30T02:23:59.119Z,16.33
2023-01-30T02:26:51.444Z,17.37
2023-01-30T02:29:51.126Z,16.93
2023-01-30T02:32:29.567Z,15.83
2023-01-30T02:35:05.922Z,17.20
2023-01-30T02:37:48.327Z,17.23
2023-01-30T02:40:27.180Z,17.17
2023-01-30T02:43:04.815Z,16.50
2023-01-30T02:45:38.028Z,16.70
2023-01-30T02:48:08.772Z,16.27
2023-01-30T02:50:43.056Z,16.50
2023-01-30T02:53:12.511Z,17.07
2023-01-30T02:55:42.560Z,17.03
2023-01-30T02:58:11.652Z,16.83
2023-01-30T03:01:10.281Z,18.50
2023-01-30T03:03:54.816Z,16.13
2023-01-30T03:06:36.019Z,16.50
2023-01-30T03:09:15.951Z,16.30
2023-01-30T03:11:50.778Z,16.67
2023-01-30T03:14:24.327Z,17.87
2023-01-30T03:16:56.311Z,16.47
2023-01-30T03:19:26.091Z,17.13
2023-01-30T03:21:54.240Z,16.43
2023-01-30T03:24:22.453Z,16.83
2023-01-30T03:26:56.060Z,14.93
2023-01-30T03:29:24.552Z,15.77
2023-01-30T03:31:52.714Z,15.60
2023-01-30T03:34:20.924Z,15.80
2023-01-30T03:36:50.564Z,15.90
2023-01-30T03:39:18.706Z,16.27
2023-01-30T03:41:47.807Z,16.17
2023-01-30T03:44:18.323Z,16.60
2023-01-30T03:46:47.126Z,16.37
2023-01-30T03:49:15.821Z,17.30
2023-01-30T03:51:44.095Z,16.60
2023-01-30T03:54:13.756Z,17.10
2023-01-30T03:56:41.945Z,16.17
2023-01-30T03:59:10.415Z,17.40
2023-01-30T04:01:48.045Z,16.23
2023-01-30T04:04:16.455Z,16.57
2023-01-30T04:06:45.250Z,16.90
2023-01-30T04:09:14.901Z,17.90
2023-01-30T04:11:49.478Z,18.47
2023-01-30T04:14:19.094Z,17.07
2023-01-30T04:17:09.739Z,16.53
2023-01-30T04:19:57.416Z,17.20
2023-01-30T04:22:25.765Z,16.63
2023-01-30T04:24:55.889Z,17.13
2023-01-30T04:27:24.224Z,16.30
2023-01-30T04:30:12.897Z,16.57
2023-01-30T04:32:41.998Z,15.97
2023-01-30T04:35:12.266Z,13.90
2023-01-30T04:37:41.520Z,13.27
2023-01-30T04:40:13.659Z,14.03
2023-01-30T04:42:41.807Z,14.73
2023-01-30T04:45:39.248Z,13.67
2023-01-30T04:48:07.570Z,14.87
2023-01-30T04:50:36.208Z,14.80
2023-01-30T04:53:05.717Z,15.30
2023-01-30T04:55:35.797Z,14.83
2023-01-30T04:58:04.620Z,17.10
2023-01-30T05:00:32.830Z,15.60
2023-01-30T05:03:02.332Z,15.70
2023-01-30T05:05:30.519Z,16.20
2023-01-30T05:07:58.732Z,15.67
2023-01-30T05:10:26.765Z,17.90
2023-01-30T05:12:56.284Z,17.50
2023-01-30T05:15:24.571Z,19.20
2023-01-30T05:17:52.864Z,16.70
2023-01-30T05:20:21.483Z,17.27
2023-01-30T05:22:49.551Z,18.20
2023-01-30T05:25:18.034Z,19.00
2023-01-30T05:27:46.358Z,15.83
2023-01-30T05:30:16.256Z,18.43
2023-01-30T05:32:44.489Z,16.83
2023-01-30T05:35:12.696Z,17.20
2023-01-30T05:37:40.975Z,16.13
2023-01-30T05:40:10.232Z,15.33
2023-01-30T05:42:38.680Z,15.07
2023-01-30T05:45:07.936Z,15.30
2023-01-30T05:47:37.504Z,14.33
2023-01-30T05:50:06.190Z,14.30
2023-01-30T05:52:34.464Z,13.80
2023-01-30T05:55:02.545Z,13.70
2023-01-30T05:57:30.573Z,13.60
2023-01-30T05:59:58.757Z,14.57
2023-01-30T06:02:26.828Z,14.27
2023-01-30T06:04:56.304Z,14.10
2023-01-30T06:07:24.512Z,11.77
2023-01-30T06:09:52.598Z,11.90
2023-01-30T06:12:20.847Z,12.00
2023-01-30T06:14:48.881Z,11.67
2023-01-30T06:17:16.937Z,11.60
2023-01-30T06:20:05.416Z,11.50
2023-01-30T06:22:33.396Z,10.97
2023-01-30T06:25:01.542Z,11.23
2023-01-30T06:27:29.548Z,10.33
2023-01-30T06:29:57.642Z,10.93
2023-01-30T06:32:25.767Z,9.30
2023-01-30T06:34:53.940Z,9.13
2023-01-30T06:37:23.486Z,8.03
2023-01-30T06:39:51.730Z,7.83
2023-01-30T06:42:19.782Z,6.40
2023-01-30T06:44:47.813Z,6.07
2023-01-30T06:47:15.844Z,6.63
2023-01-30T06:49:43.854Z,5.30
2023-01-30T06:52:11.937Z,5.87
2023-01-30T06:54:41.384Z,5.93
2023-01-30T06:57:09.659Z,5.67
2023-01-30T06:59:37.875Z,4.93
2023-01-30T07:02:06.015Z,5.13
2023-01-30T07:04:34.537Z,5.50
2023-01-30T07:07:02.676Z,5.20
2023-01-30T07:09:30.922Z,4.43
2023-01-30T07:12:00.634Z,4.87
2023-01-30T07:14:28.740Z,4.63
2023-01-30T07:16:57.148Z,4.83
2023-01-30T07:19:25.298Z,4.93
2023-01-30T07:21:53.553Z,4.20
2023-01-30T07:24:21.647Z,3.70
2023-01-30T07:26:50.064Z,3.90
2023-01-30T07:29:19.735Z,3.80
2023-01-30T07:31:48.186Z,3.63
2023-01-30T07:34:16.490Z,2.70
2023-01-30T07:36:44.543Z,3.07
2023-01-30T07:39:12.864Z,3.37
2023-01-30T07:41:40.947Z,3.20
2023-01-30T07:44:11.712Z,3.00
2023-01-30T07:46:41.231Z,2.70
2023-01-30T07:49:11.031Z,3.67
2023-01-30T07:51:39.063Z,2.93
2023-01-30T07:54:07.546Z,3.53
2023-01-30T07:56:35.928Z,3.47
2023-01-30T07:59:05.672Z,3.93
2023-01-30T08:01:34.124Z,3.07
2023-01-30T08:04:03.882Z,2.80
2023-01-30T08:06:32.115Z,3.30
2023-01-30T08:09:00.172Z,2.73
2023-01-30T08:11:28.326Z,2.70
2023-01-30T08:13:56.532Z,3.30
2023-01-30T08:16:24.735Z,3.67
2023-01-30T08:18:52.929Z,3.43
2023-01-30T08:21:22.337Z,3.27
2023-01-30T08:23:50.975Z,3.10
2023-01-30T08:26:19.184Z,2.97
2023-01-30T08:28:47.395Z,3.67
2023-01-30T08:31:17.110Z,3.40
2023-01-30T08:33:45.273Z,2.80
2023-01-30T08:36:13.504Z,2.80
2023-01-30T08:38:43.038Z,3.27
2023-01-30T08:41:11.227Z,3.60
2023-01-30T08:43:39.235Z,3.80
2023-01-30T08:46:07.358Z,3.47
2023-01-30T08:48:49.106Z,3.27
2023-01-30T08:51:18.518Z,3.77
2023-01-30T08:53:48.230Z,3.30
2023-01-30T08:56:16.401Z,3.47
2023-01-30T08:58:46.637Z,3.57
2023-01-30T09:01:14.984Z,4.00
2023-01-30T09:03:43.766Z,3.77
2023-01-30T09:06:12.052Z,3.43
2023-01-30T09:08:40.170Z,3.23
2023-01-30T09:11:11.973Z,2.93
2023-01-30T09:13:43.420Z,3.07
2023-01-30T09:16:12.192Z,2.63
2023-01-30T09:18:41.725Z,3.33
2023-01-30T09:21:10.958Z,3.30
2023-01-30T09:23:39.733Z,3.67
2023-01-30T09:26:09.236Z,3.30
2023-01-30T09:28:37.491Z,3.40
2023-01-30T09:31:05.980Z,3.13
2023-01-30T09:33:34.165Z,3.00
2023-01-30T09:36:02.276Z,3.13
2023-01-30T09:38:30.328Z,3.57
2023-01-30T09:41:14.701Z,4.03
2023-01-30T09:43:55.850Z,2.90
2023-01-30T09:46:35.955Z,4.30
2023-01-30T09:49:15.357Z,3.37
2023-01-30T09:51:56.921Z,2.97
2023-01-30T09:54:30.303Z,3.60
2023-01-30T09:57:21.240Z,3.10
2023-01-30T09:59:56.161Z,3.10
2023-01-30T10:02:40.957Z,3.03
2023-01-30T10:05:09.368Z,3.20
2023-01-30T10:08:02.643Z,3.20
2023-01-30T10:10:48.319Z,3.07
2023-01-30T10:13:32.973Z,2.90
2023-01-30T10:16:07.861Z,2.43
2023-01-30T10:18:50.920Z,2.53
2023-01-30T10:21:28.051Z,2.70
2023-01-30T10:24:06.426Z,2.70
2023-01-30T10:26:35.121Z,3.47
2023-01-30T10:29:09.037Z,3.00
2023-01-30T10:31:43.199Z,2.27
2023-01-30T10:34:15.901Z,2.97
2023-01-30T10:36:50.304Z,2.73
2023-01-30T10:39:27.339Z,2.73
2023-01-30T10:42:03.651Z,2.63
2023-01-30T10:44:32.939Z,2.73
2023-01-30T10:47:46.721Z,2.73
2023-01-30T10:50:17.921Z,2.60
2023-01-30T10:52:53.059Z,2.50
2023-01-30T10:55:37.305Z,3.30
2023-01-30T10:58:15.087Z,3.00
2023-01-30T11:00:49.183Z,2.73
2023-01-30T11:03:25.604Z,3.13
2023-01-30T11:05:57.116Z,3.27
2023-01-30T11:08:26.838Z,2.77
2023-01-30T11:10:56.450Z,3.33
2023-01-30T11:13:30.096Z,2.93
2023-01-30T11:16:04.982Z,2.90
2023-01-30T11:19:17.616Z,2.93
2023-01-30T11:21:34.844Z,3.17
2023-01-30T11:24:14.140Z,2.97
2023-01-30T11:26:47.794Z,3.27
2023-01-30T11:29:25.175Z,3.07
2023-01-30T11:31:55.922Z,2.97
2023-01-30T11:34:25.509Z,2.70
2023-01-30T11:36:53.880Z,3.03
2023-01-30T11:39:29.149Z,3.30
2023-01-30T11:42:01.680Z,2.73
2023-01-30T11:44:31.333Z,2.50
2023-01-30T11:47:02.812Z,3.13
2023-01-30T11:49:57.623Z,3.00
2023-01-30T11:52:28.515Z,2.70
2023-01-30T11:55:05.319Z,3.10
2023-01-30T11:57:41.251Z,3.07
2023-01-30T12:00:18.213Z,3.20
2023-01-30T12:02:49.641Z,3.23
2023-01-30T12:05:27.204Z,2.87
2023-01-30T12:08:12.036Z,2.30
2023-01-30T12:10:43.767Z,2.90
2023-01-30T12:13:19.779Z,2.70
2023-01-30T12:15:52.732Z,3.23
2023-01-30T12:18:28.101Z,3.13
2023-01-30T12:21:00.893Z,3.30
2023-01-30T12:23:41.924Z,3.13
2023-01-30T12:26:16.736Z,3.30
2023-01-30T12:28:49.494Z,3.63
2023-01-30T12:31:23.379Z,2.73
2023-01-30T12:33:54.636Z,2.63
2023-01-30T12:36:34.100Z,2.83
2023-01-30T12:39:14.823Z,2.90
2023-01-30T12:42:00.040Z,2.77
2023-01-30T12:44:40.815Z,2.77
2023-01-30T12:47:24.481Z,3.20
2023-01-30T12:50:12.521Z,2.77
2023-01-30T12:53:01.689Z,3.73
2023-01-30T12:55:39.779Z,3.00
2023-01-30T12:58:15.420Z,2.93
2023-01-30T13:00:56.605Z,4.17
2023-01-30T13:03:31.495Z,3.00
2023-01-30T13:06:11.795Z,3.20
2023-01-30T13:08:59.145Z,2.90
2023-01-30T13:11:42.063Z,3.00
2023-01-30T13:14:17.717Z,3.93
2023-01-30T13:16:57.860Z,3.47
2023-01-30T13:19:40.908Z,3.27
2023-01-30T13:22:17.428Z,2.77
2023-01-30T13:24:59.229Z,2.90
2023-01-30T13:27:29.603Z,3.27
2023-01-30T13:29:59.982Z,2.93
2023-01-30T13:32:36.807Z,3.67
2023-01-30T13:35:07.811Z,3.03
2023-01-30T13:37:39.121Z,3.33
2023-01-30T13:40:17.143Z,3.00
2023-01-30T13:42:51.484Z,3.30
2023-01-30T13:45:22.536Z,3.03
2023-01-30T13:48:03.670Z,3.30
2023-01-30T13:50:56.591Z,3.37
2023-01-30T13:53:31.930Z,3.23
2023-01-30T13:56:16.270Z,2.83
2023-01-30T13:58:59.620Z,3.03
2023-01-30T14:02:08.195Z,2.70
2023-01-30T14:04:47.815Z,2.83
2023-01-30T14:07:21.808Z,3.10
2023-01-30T14:10:02.850Z,3.30
2023-01-30T14:12:36.419Z,2.83
2023-01-30T14:15:08.036Z,3.60
2023-01-30T14:17:36.069Z,3.27
2023-01-30T14:20:07.532Z,3.17
2023-01-30T14:22:40.578Z,2.97
2023-01-30T14:25:36.591Z,3.50
2023-01-30T14:28:50.900Z,3.27
2023-01-30T14:31:51.633Z,3.00
2023-01-30T14:34:47.273Z,3.20
2023-01-30T14:37:46.291Z,4.17
2023-01-30T14:40:38.809Z,3.20
2023-01-30T14:43:36.095Z,2.73
2023-01-30T14:46:08.645Z,2.93
2023-01-30T14:48:44.168Z,3.23
2023-01-30T14:51:25.003Z,2.87
2023-01-30T14:53:57.171Z,3.60
2023-01-30T14:56:40.854Z,2.90
2023-01-30T14:59:19.228Z,3.70
2023-01-30T15:02:03.850Z,3.23
2023-01-30T15:04:35.022Z,3.00
2023-01-30T15:07:10.380Z,2.80
2023-01-30T15:09:41.935Z,4.37
2023-01-30T15:12:35.377Z,4.03
2023-01-30T15:15:17.347Z,3.23
2023-01-30T15:18:07.806Z,3.80
2023-01-30T15:20:51.588Z,3.30
2023-01-30T15:23:54.967Z,3.40
2023-01-30T15:26:34.716Z,2.90
2023-01-30T15:29:26.694Z,3.47
2023-01-30T15:31:56.082Z,4.00
2023-01-30T15:34:24.885Z,3.47
2023-01-30T15:36:52.959Z,4.03
2023-01-30T15:39:23.604Z,3.07
2023-01-30T15:41:53.610Z,3.00
2023-01-30T15:44:50.693Z,3.70
2023-01-30T15:47:29.233Z,3.87
2023-01-30T15:50:00.636Z,3.50
2023-01-30T15:52:40.020Z,3.13
2023-01-30T15:55:15.411Z,3.30
2023-01-30T15:57:46.988Z,3.20
2023-01-30T16:00:26.424Z,3.40
2023-01-30T16:02:55.292Z,3.70
2023-01-30T16:05:25.624Z,3.63
2023-01-30T16:07:55.744Z,3.23
2023-01-30T16:10:26.122Z,3.47
2023-01-30T16:12:57.024Z,3.30
2023-01-30T16:15:32.935Z,3.13
2023-01-30T16:18:05.832Z,3.27
2023-01-30T16:21:00.624Z,3.43
2023-01-30T16:23:33.040Z,3.97
2023-01-30T16:26:01.852Z,3.57
2023-01-30T16:28:32.205Z,3.33
2023-01-30T16:31:03.761Z,3.87
2023-01-30T16:33:36.291Z,4.53
2023-01-30T16:36:06.480Z,2.87
2023-01-30T16:38:40.609Z,3.67
2023-01-30T16:41:29.838Z,4.47
2023-01-30T16:44:18.620Z,3.93
2023-01-30T16:46:51.521Z,3.50
2023-01-30T16:49:23.260Z,3.70
2023-01-30T16:51:59.539Z,4.07
2023-01-30T16:54:30.587Z,3.30
2023-01-30T16:57:00.592Z,3.90
2023-01-30T16:59:31.933Z,3.63
2023-01-30T17:02:03.324Z,4.13
2023-01-30T17:04:33.823Z,4.13
2023-01-30T17:07:05.436Z,3.27
2023-01-30T17:09:51.368Z,3.70
2023-01-30T17:12:43.640Z,3.80
2023-01-30T17:15:34.799Z,4.03
2023-01-30T17:18:04.812Z,3.90
2023-01-30T17:20:42.935Z,4.23
2023-01-30T17:23:18.368Z,4.30
2023-01-30T17:25:48.909Z,3.43
2023-01-30T17:28:24.051Z,4.20
2023-01-30T17:30:52.262Z,3.80
2023-01-30T17:33:21.629Z,4.07
2023-01-30T17:35:49.643Z,3.50
2023-01-30T17:38:17.648Z,3.90
2023-01-30T17:40:46.067Z,4.13
2023-01-30T17:43:14.765Z,3.60
2023-01-30T17:45:42.872Z,4.17
2023-01-30T17:48:13.075Z,3.53
2023-01-30T17:50:42.618Z,3.93
2023-01-30T17:53:10.635Z,3.80
2023-01-30T17:55:38.829Z,4.20
2023-01-30T17:58:06.891Z,4.37
2023-01-30T18:00:34.886Z,4.40
2023-01-30T18:03:03.095Z,4.20
2023-01-30T18:05:31.508Z,3.77
2023-01-30T18:08:01.679Z,4.20
2023-01-30T18:10:30.042Z,4.50
2023-01-30T18:12:58.178Z,4.73
2023-01-30T18:15:26.210Z,3.83
2023-01-30T18:17:56.433Z,4.33
2023-01-30T18:20:24.467Z,4.73
2023-01-30T18:22:52.544Z,4.13
2023-01-30T18:25:22.302Z,4.30
2023-01-30T18:27:50.470Z,4.30
2023-01-30T18:30:19.540Z,3.67
2023-01-30T18:32:53.671Z,4.07
2023-01-30T18:35:23.351Z,3.63
2023-01-30T18:37:51.792Z,4.93
2023-01-30T18:40:22.457Z,3.73
2023-01-30T18:42:50.673Z,3.80
2023-01-30T18:45:18.788Z,3.97
2023-01-30T18:47:46.804Z,3.60
2023-01-30T18:50:14.950Z,3.73
2023-01-30T18:52:43.015Z,3.40
2023-01-30T18:55:11.188Z,3.73
2023-01-30T18:57:40.700Z,3.70
2023-01-30T19:00:10.068Z,3.73
2023-01-30T19:02:38.260Z,3.70
2023-01-30T19:05:06.983Z,4.17
2023-01-30T19:07:36.596Z,4.20
2023-01-30T19:10:04.922Z,3.97
2023-01-30T19:12:50.683Z,3.73
2023-01-30T19:15:20.076Z,4.93
2023-01-30T19:17:48.122Z,4.70
2023-01-30T19:20:16.254Z,3.93
2023-01-30T19:22:44.489Z,4.73
2023-01-30T19:25:12.450Z,4.20
2023-01-30T19:27:40.387Z,4.20
2023-01-30T19:30:09.836Z,4.90
2023-01-30T19:32:39.187Z,4.83
2023-01-30T19:35:08.001Z,4.90
2023-01-30T19:37:40.245Z,5.60
2023-01-30T19:40:10.924Z,4.93
2023-01-30T19:42:43.873Z,4.83
2023-01-30T19:45:13.484Z,5.10
2023-01-30T19:47:42.797Z,4.37
2023-01-30T19:50:12.189Z,4.87
2023-01-30T19:52:40.744Z,5.53
2023-01-30T19:55:09.395Z,4.60
2023-01-30T19:57:37.340Z,5.53
2023-01-30T20:00:06.357Z,4.47
2023-01-30T20:02:34.315Z,4.80
2023-01-30T20:05:03.643Z,4.47
2023-01-30T20:07:34.308Z,4.60
2023-01-30T20:10:02.294Z,4.53
2023-01-30T20:12:31.956Z,4.47
2023-01-30T20:15:00.004Z,4.80
2023-01-30T20:17:28.050Z,5.07
2023-01-30T20:19:56.081Z,5.40
2023-01-30T20:22:25.565Z,4.80
2023-01-30T20:24:53.565Z,5.10
2023-01-30T20:27:21.898Z,5.40
2023-01-30T20:29:49.854Z,4.90
2023-01-30T20:32:17.921Z,5.20
2023-01-30T20:34:46.001Z,4.47
2023-01-30T20:37:14.038Z,5.83
2023-01-30T20:39:43.344Z,4.60
2023-01-30T20:42:12.694Z,6.30
2023-01-30T20:44:40.763Z,4.87
2023-01-30T20:47:09.835Z,4.87
2023-01-30T20:49:38.319Z,4.40
2023-01-30T20:52:06.381Z,4.83
2023-01-30T20:54:34.364Z,5.13
2023-01-30T20:57:05.680Z,5.87
2023-01-30T20:59:33.766Z,4.80
2023-01-30T21:02:02.031Z,6.37
2023-01-30T21:04:30.129Z,5.20
2023-01-30T21:06:58.161Z,5.73
2023-01-30T21:09:26.191Z,5.80
2023-01-30T21:11:55.353Z,5.67
2023-01-30T21:14:26.590Z,5.47
2023-01-30T21:16:54.798Z,5.33
2023-01-30T21:19:22.811Z,5.40
2023-01-30T21:21:53.937Z,5.80
2023-01-30T21:24:24.716Z,5.90
2023-01-30T21:26:53.227Z,5.53
2023-01-30T21:29:25.045Z,5.57
2023-01-30T21:31:53.502Z,6.30
2023-01-30T21:34:21.570Z,5.63
2023-01-30T21:37:09.773Z,5.50
2023-01-30T21:39:55.239Z,5.77
2023-01-30T21:42:40.704Z,5.43
2023-01-30T21:45:10.492Z,5.27
2023-01-30T21:47:38.914Z,5.33
2023-01-30T21:50:07.826Z,5.30
2023-01-30T21:52:35.827Z,5.47
2023-01-30T21:55:03.899Z,6.00
2023-01-30T21:57:31.900Z,5.57
2023-01-30T22:00:00.104Z,5.33
2023-01-30T22:02:29.397Z,5.43
2023-01-30T22:04:57.441Z,4.97
2023-01-30T22:07:25.500Z,4.97
2023-01-30T22:09:54.047Z,5.13
2023-01-30T22:12:22.309Z,5.00
2023-01-30T22:14:50.282Z,5.70
2023-01-30T22:17:18.283Z,5.53
2023-01-30T22:19:47.643Z,4.33
2023-01-30T22:22:15.608Z,6.13
2023-01-30T22:24:43.569Z,5.70
2023-01-30T22:27:11.551Z,5.27
2023-01-30T22:29:39.715Z,5.20
2023-01-30T22:32:07.730Z,4.70
2023-01-30T22:34:36.151Z,5.00
2023-01-30T22:37:06.102Z,4.93
2023-01-30T22:39:34.047Z,4.70
2023-01-30T22:42:02.059Z,4.53
2023-01-30T22:44:30.090Z,4.90
2023-01-30T22:46:58.131Z,5.20
2023-01-30T22:49:26.113Z,4.90
2023-01-30T22:51:54.129Z,5.27
2023-01-30T22:54:24.934Z,5.10
2023-01-30T22:56:53.311Z,5.17
2023-01-30T22:59:21.617Z,4.77
2023-01-30T23:01:50.819Z,4.97
2023-01-30T23:04:20.403Z,5.60
2023-01-30T23:06:49.265Z,5.67
2023-01-30T23:09:19.151Z,5.17
2023-01-30T23:12:10.947Z,5.00
2023-01-30T23:14:40.493Z,4.60
2023-01-30T23:17:23.293Z,4.27
2023-01-30T23:19:51.308Z,5.17
2023-01-30T23:22:19.547Z,5.30
2023-01-30T23:24:48.606Z,6.13
2023-01-30T23:27:18.063Z,5.27
2023-01-30T23:29:46.023Z,5.13
2023-01-30T23:32:14.906Z,5.27
2023-01-30T23:34:43.063Z,4.53
2023-01-30T23:37:11.138Z,4.77
2023-01-30T23:39:39.179Z,5.40
2023-01-30T23:42:07.224Z,4.50
2023-01-30T23:44:36.641Z,4.47
2023-01-30T23:47:04.661Z,4.53
2023-01-30T23:49:32.650Z,4.70
2023-01-30T23:52:00.592Z,4.30
2023-01-30T23:54:28.965Z,4.63
2023-01-30T23:56:56.945Z,5.40
2023-01-30T23:59:24.979Z,4.50
